Time;durP1;ratioP1;P1;durP2;ratioP2;P2;SDS_P1;SDS_P2;PMS_P1;PMS_P2;Temp;Humidity;BMP_temperature;BMP_pressure;BME280_temperature;BME280_humidity;BME280_pressure;Samples;Min_cycle;Max_cycle;Signal;HPM_P1;HPM_P2
2022/04/05 00:01:31;;;;;;;1.60;0.83;;;;;;;;;;20926760;28;20225;-65
2022/04/05 00:11:33;;;;;;;0.93;0.60;;;;;;;;;;20930416;28;20221;-65
2022/04/05 00:21:34;;;;;;;0.50;0.37;;;;;;;;;;20934447;28;20229;-65
2022/04/05 00:31:36;;;;;;;3.57;1.40;;;;;;;;;;20942274;28;20576;-65
2022/04/05 00:41:38;;;;;;;0.83;0.70;;;7.80;99.90;;;;;;20941027;28;20225;-65
2022/04/05 00:51:40;;;;;;;0.63;0.40;;;;;;;;;;20948397;28;20233;-65
2022/04/05 01:01:43;;;;;;;0.77;0.57;;;7.70;99.90;;;;;;20940176;28;20239;-65
2022/04/05 01:11:45;;;;;;;0.10;0.10;;;;;;;;;;20907597;28;20209;-65
2022/04/05 01:21:47;;;;;;;0.20;0.20;;;;;;;;;;20939063;28;20235;-65
2022/04/05 01:31:51;;;;;;;0.33;0.23;;;7.70;99.90;;;;;;20972032;28;20197;-65
2022/04/05 01:41:58;;;;;;;0.27;0.27;;;7.60;99.90;;;;;;20938478;28;20660;-65
2022/04/05 01:52:00;;;;;;;0.67;0.40;;;7.50;99.90;;;;;;20937817;28;20224;-65
2022/04/05 02:02:06;;;;;;;0.30;0.30;;;7.40;99.90;;;;;;20907679;28;20217;-65
2022/04/05 02:12:09;;;;;;;0.60;0.43;;;7.40;99.90;;;;;;20896389;28;20217;-65
2022/04/05 02:22:37;;;;;;;0.50;0.47;;;;;;;;;;20906735;28;20237;-65
2022/04/05 02:32:47;;;;;;;0.87;0.60;;;;;;;;;;20921246;28;20627;-65
2022/04/05 02:42:50;;;;;;;0.70;0.40;;;;;;;;;;20950663;28;20221;-65
2022/04/05 02:52:53;;;;;;;0.50;0.43;;;;;;;;;;20949921;28;20213;-65
2022/04/05 03:02:56;;;;;;;1.00;0.63;;;;;;;;;;20949754;28;20213;-65
2022/04/05 03:13:00;;;;;;;0.23;0.23;;;6.20;99.90;;;;;;20934221;28;20266;-64
2022/04/05 03:23:04;;;;;;;0.33;0.30;;;;;;;;;;20916253;28;20266;-65
2022/04/05 03:33:07;;;;;;;1.93;0.50;;;;;;;;;;20931180;28;20217;-65
2022/04/05 03:43:12;;;;;;;0.93;0.50;;;;;;;;;;20879917;28;20233;-65
2022/04/05 03:53:16;;;;;;;0.10;0.10;;;;;;;;;;20946058;28;20221;-64
2022/04/05 04:03:19;;;;;;;0.30;0.30;;;;;;;;;;20906115;28;20229;-64
2022/04/05 04:13:23;;;;;;;0.30;0.30;;;;;;;;;;20846184;28;20222;-64
2022/04/05 04:23:27;;;;;;;3.20;0.60;;;;;;;;;;20844952;28;20248;-64
2022/04/05 04:33:31;;;;;;;1.00;0.30;;;;;;;;;;20860329;28;20742;-65
2022/04/05 04:43:33;;;;;;;0.67;0.57;;;;;;;;;;20858443;28;20214;-65
2022/04/05 04:53:34;;;;;;;1.33;0.40;;;;;;;;;;20858082;28;20214;-65
2022/04/05 05:03:36;;;;;;;0.30;0.30;;;;;;;;;;20903072;28;20641;-65
2022/04/05 05:13:38;;;;;;;0.93;0.50;;;;;;;;;;20934762;28;20676;-65
2022/04/05 05:23:40;;;;;;;0.27;0.27;;;;;;;;;;20909826;28;20229;-64
2022/04/05 05:33:52;;;;;;;0.47;0.40;;;;;;;;;;20929377;22;20263;-85
2022/04/05 05:43:53;;;;;;;1.20;0.60;;;;;;;;;;20865471;28;20237;-82
2022/04/05 05:53:55;;;;;;;0.77;0.50;;;;;;;;;;20870452;28;20217;-83
2022/04/05 06:03:57;;;;;;;0.63;0.40;;;;;;;;;;20893004;28;20281;-85
2022/04/05 06:13:59;;;;;;;0.97;0.87;;;;;;;;;;20881993;28;20214;-83
2022/04/05 06:24:01;;;;;;;0.97;0.60;;;;;;;;;;20927597;28;20229;-83
2022/04/05 06:34:02;;;;;;;0.60;0.47;;;;;;;;;;20936009;28;20287;-82
2022/04/05 06:44:04;;;;;;;0.30;0.30;;;;;;;;;;20952822;28;20702;-83
2022/04/05 06:54:06;;;;;;;1.90;0.73;;;;;;;;;;20996212;28;20278;-84
2022/04/05 07:04:08;;;;;;;0.60;0.30;;;;;;;;;;20964997;28;20321;-84
2022/04/05 07:14:10;;;;;;;0.70;0.40;;;;;;;;;;20991598;28;20275;-84
2022/04/05 07:24:13;;;;;;;0.57;0.40;;;;;;;;;;20974019;28;20643;-84
2022/04/05 07:34:14;;;;;;;0.53;0.43;;;;;;;;;;20923595;28;20294;-82
2022/04/05 07:44:16;;;;;;;1.50;0.77;;;7.40;99.90;;;;;;21004847;28;20225;-84
2022/04/05 07:54:18;;;;;;;0.60;0.50;;;;;;;;;;20961606;28;20283;-81
2022/04/05 08:04:20;;;;;;;0.63;0.50;;;;;;;;;;20901762;22;20226;-65
2022/04/05 08:14:27;;;;;;;0.93;0.50;;;;;;;;;;20860486;28;20214;-65
2022/04/05 08:24:29;;;;;;;0.40;0.30;;;;;;;;;;20844941;28;20280;-65
2022/04/05 08:34:33;;;;;;;0.33;0.30;;;;;;;;;;20801856;28;20226;-65
2022/04/05 08:44:35;;;;;;;0.57;0.30;;;;;;;;;;20774990;28;20276;-65
2022/04/05 08:54:36;;;;;;;0.80;0.67;;;;;;;;;;20804265;28;20205;-67
2022/04/05 09:04:39;;;;;;;0.67;0.53;;;;;;;;;;20852726;28;20226;-67
2022/04/05 09:14:41;;;;;;;0.33;0.30;;;;;;;;;;20872091;28;20255;-68
2022/04/05 09:24:44;;;;;;;0.93;0.60;;;;;;;;;;20871770;28;20256;-67
2022/04/05 09:34:50;;;;;;;2.20;1.10;;;8.50;99.90;;;;;;20783316;28;20272;-66
2022/04/05 09:44:52;;;;;;;1.30;0.40;;;;;;;;;;20779604;28;20283;-66
2022/04/05 09:54:54;;;;;;;0.30;0.30;;;8.70;99.90;;;;;;20778147;28;20218;-66
2022/04/05 10:05:00;;;;;;;0.93;0.50;;;;;;;;;;20785075;28;20214;-66
2022/04/05 10:15:02;;;;;;;2.40;0.80;;;;;;;;;;20829852;28;20244;-66
2022/04/05 10:25:04;;;;;;;1.00;0.70;;;;;;;;;;20834430;28;20280;-66
2022/04/05 10:35:09;;;;;;;0.30;0.30;;;;;;;;;;20813535;28;20697;-67
2022/04/05 10:45:14;;;;;;;1.30;0.50;;;;;;;;;;20837161;28;20217;-67
2022/04/05 10:55:20;;;;;;;0.23;0.20;;;8.80;99.90;;;;;;20827666;28;20252;-66
2022/04/05 11:05:27;;;;;;;0.53;0.40;;;9.50;99.90;;;;;;20843403;28;20271;-66
2022/04/05 11:15:59;;;;;;;0.70;0.50;;;9.50;99.90;;;;;;20852147;28;20684;-67
2022/04/05 11:26:28;;;;;;;1.20;0.60;;;9.50;99.90;;;;;;20849605;28;20782;-66
2022/04/05 11:36:41;;;;;;;1.13;0.60;;;;;;;;;;20907529;22;20286;-64
2022/04/05 11:46:42;;;;;;;0.93;0.60;;;;;;;;;;20935800;28;20644;-65
2022/04/05 11:56:45;;;;;;;1.30;0.63;;;10.20;99.90;;;;;;20910255;28;20210;-64
2022/04/05 12:06:48;;;;;;;0.87;0.60;;;;;;;;;;20895874;28;20214;-64
2022/04/05 12:16:54;;;;;;;0.67;0.40;;;;;;;;;;20893554;28;20758;-65
2022/04/05 12:27:00;;;;;;;0.70;0.60;;;9.90;99.90;;;;;;20915221;28;20278;-64
2022/04/05 12:37:05;;;;;;;1.63;1.00;;;9.70;99.90;;;;;;20912021;28;20260;-64
2022/04/05 12:47:07;;;;;;;0.70;0.50;;;;;;;;;;20868441;28;20202;-64
2022/04/05 12:57:13;;;;;;;0.97;0.50;;;;;;;;;;20880049;28;20221;-64
2022/04/05 13:07:15;;;;;;;1.03;0.77;;;;;;;;;;20948701;28;20225;-64
2022/04/05 13:17:18;;;;;;;1.73;1.00;;;;;;;;;;20930400;28;20699;-64
2022/04/05 13:27:22;;;;;;;1.17;0.67;;;;;;;;;;20884695;28;20218;-64
2022/04/05 13:37:24;;;;;;;1.83;0.80;;;;;;;;;;20910562;28;20217;-66
2022/04/05 13:47:26;;;;;;;1.07;0.60;;;;;;;;;;20932826;28;20205;-64
2022/04/05 13:57:27;;;;;;;0.53;0.43;;;;;;;;;;20947401;28;20213;-64
2022/04/05 14:07:30;;;;;;;1.37;0.93;;;;;;;;;;20921569;28;20265;-65
2022/04/05 14:17:31;;;;;;;1.70;0.80;;;;;;;;;;20950608;28;20213;-64
2022/04/05 14:27:33;;;;;;;1.23;0.73;;;;;;;;;;20909756;28;20210;-64
2022/04/05 14:37:35;;;;;;;0.80;0.50;;;;;;;;;;20884511;28;20275;-64
2022/04/05 14:47:37;;;;;;;1.30;0.50;;;;;;;;;;20866435;28;20279;-64
2022/04/05 14:57:39;;;;;;;0.90;0.70;;;;;;;;;;20937380;28;20239;-64
2022/04/05 15:07:41;;;;;;;1.07;0.47;;;;;;;;;;20947974;28;20278;-64
2022/04/05 15:17:43;;;;;;;1.03;0.73;;;;;;;;;;20946542;28;20615;-64
2022/04/05 15:27:45;;;;;;;1.00;0.57;;;;;;;;;;20943472;28;20213;-64
2022/04/05 15:37:46;;;;;;;0.90;0.50;;;;;;;;;;20922852;28;20263;-64
2022/04/05 15:47:48;;;;;;;1.00;0.63;;;;;;;;;;20938708;28;20267;-64
2022/04/05 15:57:50;;;;;;;1.77;0.90;;;;;;;;;;20918240;28;20217;-64
2022/04/05 16:07:52;;;;;;;0.60;0.60;;;;;;;;;;20934682;28;20231;-64
2022/04/05 16:17:54;;;;;;;1.23;0.73;;;10.40;99.90;;;;;;20908549;28;20582;-65
2022/04/05 16:27:56;;;;;;;0.60;0.50;;;;;;;;;;20883193;28;20213;-64
2022/04/05 16:37:58;;;;;;;2.33;0.67;;;;;;;;;;20877377;28;20256;-64
2022/04/05 16:48:00;;;;;;;1.20;0.83;;;;;;;;;;20844091;28;20280;-64
2022/04/05 16:58:02;;;;;;;1.53;0.83;;;;;;;;;;20845391;28;20275;-64
2022/04/05 17:08:04;;;;;;;0.93;0.70;;;;;;;;;;20854724;28;20229;-64
2022/04/05 17:18:07;;;;;;;2.03;0.83;;;;;;;;;;20937825;28;20282;-64
2022/04/05 17:28:10;;;;;;;1.40;0.90;;;;;;;;;;20887410;28;20217;-64
2022/04/05 17:38:12;;;;;;;0.70;0.60;;;;;;;;;;20894141;28;21089;-64
2022/04/05 17:48:15;;;;;;;0.93;0.63;;;;;;;;;;20846783;28;20214;-65
2022/04/05 17:58:17;;;;;;;1.43;0.87;;;;;;;;;;20899179;28;20270;-64
2022/04/05 18:08:20;;;;;;;1.23;0.80;;;;;;;;;;20878368;28;20209;-64
2022/04/05 18:18:21;;;;;;;0.80;0.50;;;9.80;99.90;;;;;;20857646;28;20625;-64
2022/04/05 18:28:24;;;;;;;1.37;0.50;;;;;;;;;;20896844;28;20278;-64
2022/04/05 18:38:27;;;;;;;0.70;0.70;;;;;;;;;;20934431;28;20283;-64
2022/04/05 18:48:29;;;;;;;1.07;0.53;;;;;;;;;;20916679;28;20214;-65
2022/04/05 18:58:32;;;;;;;1.37;0.80;;;;;;;;;;20859567;28;20221;-64
2022/04/05 19:08:34;;;;;;;1.20;0.60;;;;;;;;;;20928991;28;20213;-65
2022/04/05 19:18:35;;;;;;;1.10;0.70;;;;;;;;;;20958500;28;20217;-64
2022/04/05 19:28:39;;;;;;;7.07;3.90;;;;;;;;;;20924958;28;20271;-64
2022/04/05 19:38:41;;;;;;;1.27;0.80;;;;;;;;;;20929835;28;20306;-64
2022/04/05 19:48:45;;;;;;;1.83;0.97;;;;;;;;;;20927995;28;20213;-64
2022/04/05 19:58:47;;;;;;;0.90;0.60;;;;;;;;;;20921597;28;20291;-64
2022/04/05 20:08:50;;;;;;;0.93;0.60;;;;;;;;;;20939798;28;20740;-64
2022/04/05 20:18:52;;;;;;;1.17;0.70;;;;;;;;;;20938383;28;20274;-65
2022/04/05 20:28:54;;;;;;;0.63;0.50;;;;;;;;;;20917547;28;20209;-64
2022/04/05 20:39:03;;;;;;;0.87;0.70;;;9.70;99.90;;;;;;20928268;28;20589;-64
2022/04/05 20:49:05;;;;;;;2.40;1.10;;;;;;;;;;20933784;28;20209;-64
2022/04/05 20:59:07;;;;;;;1.70;0.80;;;9.40;99.90;;;;;;20955374;28;20274;-64
2022/04/05 21:09:09;;;;;;;1.60;0.90;;;;;;;;;;20939746;28;20205;-64
2022/04/05 21:19:10;;;;;;;1.53;0.97;;;;;;;;;;20955756;28;20275;-64
2022/04/05 21:29:30;;;;;;;1.80;1.03;;;;;;;;;;20965453;28;20731;-65
2022/04/05 21:39:32;;;;;;;1.20;0.70;;;;;;;;;;20938937;28;20225;-65
2022/04/05 21:49:37;;;;;;;1.07;0.63;;;9.70;99.90;;;;;;20937644;28;20213;-64
2022/04/05 21:59:40;;;;;;;1.50;1.10;;;;;;;;;;20969920;28;20267;-64
2022/04/05 22:09:42;;;;;;;1.23;0.70;;;;;;;;;;20937037;28;20753;-65
2022/04/05 22:19:43;;;;;;;1.60;1.00;;;;;;;;;;20936654;28;20762;-64
2022/04/05 22:29:45;;;;;;;4.63;1.57;;;;;;;;;;20922375;28;20221;-64
2022/04/05 22:39:48;;;;;;;1.20;0.83;;;;;;;;;;20935828;28;20217;-64
2022/04/05 22:49:50;;;;;;;1.03;0.67;;;;;;;;;;20945218;28;20274;-64
2022/04/05 22:59:52;;;;;;;1.57;0.97;;;;;;;;;;20965854;28;20286;-65
2022/04/05 23:09:55;;;;;;;1.20;0.83;;;;;;;;;;20932813;28;20209;-65
2022/04/05 23:19:57;;;;;;;0.90;0.70;;;;;;;;;;20964561;28;20687;-65
2022/04/05 23:29:59;;;;;;;1.00;0.63;;;;;;;;;;20962509;28;20209;-64
2022/04/05 23:40:01;;;;;;;1.17;0.70;;;;;;;;;;20967647;28;20247;-64
2022/04/05 23:50:03;;;;;;;1.07;0.87;;;;;;;;;;20946122;28;20730;-65
